This is the latest recevied weather packets stored in our database for station/object KQ4NAL. If no packets are shown the sender has not sent any weather packets the latest 10 day(s).
| Time | Temp. | Humidity | Pressure | Rain* | Wind** | Luminosity | Snow |
|---|---|---|---|---|---|---|---|
| 1777743088 | 11.11° C | 50% | 1018.5 hPa | 0 mm | - | 223 W/m² | - |
| 1777742785 | 11.67° C | 49% | 1018.6 hPa | 0 mm | - | 206 W/m² | - |
| 1777742481 | 11.67° C | 51% | 1018.5 hPa | 0 mm | - | 504 W/m² | - |
| 1777742177 | 12.78° C | 49% | 1018.6 hPa | 0 mm | - | 303 W/m² | - |
| 1777741874 | 13.33° C | 51% | 1018.6 hPa | 0 mm | - | 1003 W/m² | - |
| 1777741571 | 11.67° C | 55% | 1018.8 hPa | 0 mm | - | 903 W/m² | - |
| 1777741268 | 11.67° C | 52% | 1018.6 hPa | 0 mm | - | 170 W/m² | - |
| 1777740964 | 12.22° C | 52% | 1018.7 hPa | 0 mm | - | 310 W/m² | - |
| 1777740661 | 11.11° C | 54% | 1019 hPa | 0 mm | - | 822 W/m² | - |
| 1777740357 | 11.11° C | 52% | 1018.8 hPa | 0 mm | - | 256 W/m² | - |
| 1777740054 | 11.11° C | 52% | 1019.1 hPa | 0 mm | - | 428 W/m² | - |
| 1777739750 | 11.11° C | 51% | 1019 hPa | 0 mm | - | 232 W/m² | - |
| 1777739447 | 11.67° C | 50% | 1019 hPa | 0 mm | - | 903 W/m² | - |
| 1777739144 | 11.11° C | 51% | 1019 hPa | 0 mm | - | 869 W/m² | - |
| 1777738841 | 11.67° C | 56% | 1019.2 hPa | 0 mm | - | 924 W/m² | - |
| 1777738538 | 12.78° C | 50% | 1019.2 hPa | 0 mm | - | 380 W/m² | - |
| 1777738236 | 12.22° C | 51% | 1019 hPa | 0 mm | - | 857 W/m² | - |
| 1777737934 | 11.67° C | 51% | 1019.2 hPa | 0 mm | - | 329 W/m² | - |
| 1777737632 | 12.78° C | 54% | 1019.2 hPa | 0 mm | - | 829 W/m² | - |
| 1777737330 | 11.67° C | 54% | 1019.3 hPa | 0 mm | - | 873 W/m² | - |
| 1777737027 | 10.56° C | 54% | 1019.3 hPa | 0 mm | - | 911 W/m² | - |
| 1777736722 | 10.56° C | 55% | 1019.2 hPa | 0 mm | - | 441 W/m² | - |
| 1777736089 | 11.11° C | 55% | 1019.4 hPa | 0 mm | - | 868 W/m² | - |
| 1777735786 | 10° C | 56% | 1019.5 hPa | 0 mm | - | 693 W/m² | - |
| 1777735484 | 10.56° C | 53% | 1019.6 hPa | 0 mm | - | 293 W/m² | - |
* Rain latest hour (hover to see other rain measurements)
** Current wind speed in m/s (hover to see current wind gust speed)